Terminal Aerodrome Forecast
Issued by NWS Jackson, KY

Home | Current Version | Previous Version | Text Only | Print | Product List | Glossary On
Versions: 1 2 3 4 5 6 7 8 9 10 11 12 13
000
FTUS43 KJKL 292321
TAFLOZ
TAF
KLOZ 292321Z 3000/3024 11003KT P6SM FEW100 SCT250
     FM300900 00000KT 4SM BR SCT050
     FM301300 21007KT P6SM BKN040
     FM301800 20007KT P6SM VCTS FEW030CB BKN050 OVC120=

USA.gov is the U.S. government's official web portal to all federal, state and local government web resources and services.